AAL6296 KSAF-KDFW
Flight info
| Callsign | AAL6296 |
|---|---|
| Flight time | N/A |
| Altitude | 37000 |
| Route | TAFOY3 ACH PNH MDANO JOVEM6 |
| Aircraft | A319/M-SDE3FGHIRWY/LB1 |
Departure
| Time | 2026-04-29 16:47 |
|---|---|
| Airport | Santa Fe Municipal Airport (KSAF) |
Arrival
| Time | N/A |
|---|---|
| Airport | Dallas Fort Worth International Airport (KDFW) |
| Time | Latitude | Longitude | Altitude | Speed | Heading |
|---|---|---|---|---|---|
| 2026-04-29 16:42 | 35.62277 | -106.08167 | 6316 ft | 0 kts | 306° |
| 2026-04-29 16:44 | 35.62278 | -106.08169 | 6316 ft | 2 kts | 306° |
| 2026-04-29 16:45 | 35.62294 | -106.08181 | 6313 ft | 3 kts | 347° |
| 2026-04-29 16:45 | 35.62315 | -106.08176 | 6313 ft | 3 kts | 20° |
| 2026-04-29 16:45 | 35.62341 | -106.08158 | 6312 ft | 5 kts | 34° |
| 2026-04-29 16:45 | 35.62392 | -106.08113 | 6311 ft | 13 kts | 34° |
| 2026-04-29 16:46 | 35.62485 | -106.08033 | 6309 ft | 19 kts | 35° |
| 2026-04-29 16:46 | 35.62595 | -106.07959 | 6309 ft | 17 kts | 356° |
| 2026-04-29 16:46 | 35.62678 | -106.08011 | 6306 ft | 11 kts | 267° |
| 2026-04-29 16:46 | 35.62630 | -106.08076 | 6306 ft | 13 kts | 213° |
| 2026-04-29 16:47 | 35.62428 | -106.08246 | 6311 ft | 73 kts | 214° |
| 2026-04-29 16:47 | 35.61790 | -106.08792 | 6317 ft | 147 kts | 217° |
| 2026-04-29 16:47 | 35.60924 | -106.09586 | 6964 ft | 156 kts | 212° |
| 2026-04-29 16:47 | 35.59955 | -106.10126 | 7731 ft | 158 kts | 189° |
| 2026-04-29 16:48 | 35.58849 | -106.09844 | 8357 ft | 174 kts | 165° |
| 2026-04-29 16:48 | 35.57612 | -106.09424 | 8879 ft | 196 kts | 169° |
| 2026-04-29 16:48 | 35.56199 | -106.09016 | 9402 ft | 219 kts | 170° |
| 2026-04-29 16:48 | 35.54732 | -106.08206 | 9885 ft | 249 kts | 141° |
| 2026-04-29 16:49 | 35.53646 | -106.06379 | 10375 ft | 279 kts | 122° |
| 2026-04-29 16:49 | 35.52728 | -106.04174 | 10961 ft | 306 kts | 117° |
| 2026-04-29 16:49 | 35.51804 | -106.01702 | 11527 ft | 331 kts | 116° |
| 2026-04-29 16:49 | 35.50824 | -105.99042 | 12269 ft | 348 kts | 117° |
| 2026-04-29 16:50 | 35.49789 | -105.96301 | 13190 ft | 358 kts | 117° |
| 2026-04-29 16:50 | 35.48694 | -105.93510 | 14003 ft | 367 kts | 119° |
| 2026-04-29 16:50 | 35.47552 | -105.90697 | 14860 ft | 376 kts | 120° |
| 2026-04-29 16:50 | 35.46355 | -105.87805 | 15649 ft | 384 kts | 120° |
| 2026-04-29 16:51 | 35.45122 | -105.84852 | 16403 ft | 393 kts | 121° |
| 2026-04-29 16:51 | 35.43852 | -105.81819 | 17122 ft | 401 kts | 121° |
| 2026-04-29 16:51 | 35.42567 | -105.78748 | 17799 ft | 408 kts | 121° |
| 2026-04-29 16:51 | 35.41263 | -105.75625 | 18448 ft | 415 kts | 121° |
| 2026-04-29 16:52 | 35.39943 | -105.72449 | 19057 ft | 421 kts | 122° |
| 2026-04-29 16:52 | 35.38607 | -105.69233 | 19691 ft | 425 kts | 122° |
| 2026-04-29 16:52 | 35.37255 | -105.65981 | 20334 ft | 430 kts | 122° |
| 2026-04-29 16:52 | 35.35890 | -105.62698 | 20968 ft | 434 kts | 123° |
| 2026-04-29 16:53 | 35.34580 | -105.59396 | 21567 ft | 443 kts | 117° |
| 2026-04-29 16:53 | 35.33822 | -105.55634 | 21721 ft | 469 kts | 97° |
| 2026-04-29 16:53 | 35.33737 | -105.51551 | 21868 ft | 486 kts | 92° |
| 2026-04-29 16:53 | 35.33709 | -105.47384 | 22000 ft | 499 kts | 92° |
| 2026-04-29 16:54 | 35.33682 | -105.43037 | 22131 ft | 511 kts | 92° |
| 2026-04-29 16:54 | 35.33646 | -105.38674 | 22265 ft | 522 kts | 92° |
| 2026-04-29 16:54 | 35.33598 | -105.34182 | 22546 ft | 528 kts | 92° |
| 2026-04-29 16:54 | 35.33543 | -105.29723 | 23024 ft | 529 kts | 93° |
| 2026-04-29 16:55 | 35.33481 | -105.25200 | 23562 ft | 529 kts | 93° |
| 2026-04-29 16:55 | 35.33416 | -105.20667 | 24004 ft | 530 kts | 93° |
| 2026-04-29 16:55 | 35.33351 | -105.16159 | 24428 ft | 532 kts | 93° |
| 2026-04-29 16:55 | 35.33284 | -105.11650 | 24852 ft | 533 kts | 93° |
| 2026-04-29 16:56 | 35.33214 | -105.07117 | 25258 ft | 535 kts | 93° |
| 2026-04-29 16:56 | 35.33139 | -105.02508 | 25673 ft | 537 kts | 93° |
| 2026-04-29 16:56 | 35.33065 | -104.97949 | 26084 ft | 538 kts | 93° |
| 2026-04-29 16:56 | 35.32994 | -104.93402 | 26523 ft | 539 kts | 93° |
| 2026-04-29 16:57 | 35.32923 | -104.88719 | 26738 ft | 547 kts | 92° |
| 2026-04-29 16:57 | 35.32852 | -104.84059 | 26856 ft | 555 kts | 92° |
| 2026-04-29 16:57 | 35.32774 | -104.79287 | 26966 ft | 562 kts | 92° |
| 2026-04-29 16:57 | 35.32691 | -104.74456 | 27101 ft | 569 kts | 93° |
| 2026-04-29 16:58 | 35.32601 | -104.69644 | 27360 ft | 571 kts | 93° |
| 2026-04-29 16:58 | 35.32506 | -104.64766 | 27700 ft | 573 kts | 93° |
| 2026-04-29 16:58 | 35.32412 | -104.59866 | 28073 ft | 574 kts | 92° |
| 2026-04-29 16:58 | 35.32322 | -104.55020 | 28445 ft | 575 kts | 92° |
| 2026-04-29 16:59 | 35.32232 | -104.50104 | 28820 ft | 576 kts | 92° |
| 2026-04-29 16:59 | 35.32138 | -104.45175 | 29195 ft | 577 kts | 92° |
| 2026-04-29 16:59 | 35.32043 | -104.40299 | 29582 ft | 578 kts | 92° |
| 2026-04-29 16:59 | 35.31947 | -104.35376 | 29979 ft | 579 kts | 92° |
| 2026-04-29 17:00 | 35.31845 | -104.30429 | 30337 ft | 580 kts | 92° |
| 2026-04-29 17:00 | 35.31772 | -104.27155 | 30569 ft | 580 kts | 92° |
| 2026-04-29 17:00 | 35.31661 | -104.22210 | 30931 ft | 580 kts | 93° |
| 2026-04-29 17:00 | 35.31547 | -104.17269 | 31326 ft | 580 kts | 93° |
| 2026-04-29 17:01 | 35.31435 | -104.12333 | 31694 ft | 580 kts | 93° |
| 2026-04-29 17:01 | 35.31291 | -104.05792 | 32203 ft | 580 kts | 93° |
| 2026-04-29 17:01 | 35.31177 | -104.00849 | 32591 ft | 580 kts | 93° |
| 2026-04-29 17:01 | 35.31096 | -103.97518 | 32849 ft | 581 kts | 94° |
| 2026-04-29 17:02 | 35.30973 | -103.92567 | 33238 ft | 581 kts | 94° |
| 2026-04-29 17:02 | 35.30847 | -103.87634 | 33656 ft | 580 kts | 94° |
| 2026-04-29 17:02 | 35.30723 | -103.82688 | 34057 ft | 581 kts | 94° |
| 2026-04-29 17:02 | 35.30595 | -103.77743 | 34391 ft | 581 kts | 94° |
| 2026-04-29 17:03 | 35.30466 | -103.72797 | 34729 ft | 581 kts | 94° |
| 2026-04-29 17:03 | 35.30339 | -103.67853 | 35100 ft | 581 kts | 94° |
| 2026-04-29 17:03 | 35.30213 | -103.62917 | 35483 ft | 580 kts | 93° |
| 2026-04-29 17:03 | 35.30084 | -103.57982 | 35847 ft | 579 kts | 93° |
| 2026-04-29 17:04 | 35.29950 | -103.53056 | 36191 ft | 579 kts | 93° |
| 2026-04-29 17:04 | 35.29812 | -103.48135 | 36525 ft | 579 kts | 93° |
| 2026-04-29 17:04 | 35.29671 | -103.43209 | 36826 ft | 579 kts | 93° |
| 2026-04-29 17:04 | 35.29529 | -103.38275 | 37084 ft | 580 kts | 93° |
| 2026-04-29 17:05 | 35.29238 | -103.28323 | 37135 ft | 584 kts | 93° |
| 2026-04-29 17:05 | 35.28939 | -103.18442 | 37120 ft | 584 kts | 93° |
| 2026-04-29 17:06 | 35.28634 | -103.08524 | 37116 ft | 584 kts | 93° |
| 2026-04-29 17:06 | 35.28316 | -102.98538 | 37120 ft | 585 kts | 93° |
| 2026-04-29 17:07 | 35.27995 | -102.88615 | 37123 ft | 585 kts | 93° |
| 2026-04-29 17:07 | 35.27668 | -102.78678 | 37128 ft | 585 kts | 93° |
| 2026-04-29 17:08 | 35.27336 | -102.68729 | 37138 ft | 586 kts | 93° |
| 2026-04-29 17:08 | 35.26979 | -102.58725 | 37138 ft | 587 kts | 93° |
| 2026-04-29 17:09 | 35.26617 | -102.48782 | 37136 ft | 587 kts | 93° |
| 2026-04-29 17:09 | 35.26254 | -102.38782 | 37147 ft | 587 kts | 93° |
| 2026-04-29 17:10 | 35.25884 | -102.28858 | 37141 ft | 588 kts | 93° |
| 2026-04-29 17:10 | 35.25506 | -102.18861 | 37143 ft | 588 kts | 93° |
| 2026-04-29 17:11 | 35.25115 | -102.08851 | 37159 ft | 588 kts | 94° |
| 2026-04-29 17:11 | 35.24714 | -101.98859 | 37182 ft | 588 kts | 93° |
| 2026-04-29 17:12 | 35.24304 | -101.88859 | 37208 ft | 588 kts | 94° |
| 2026-04-29 17:12 | 35.23960 | -101.80557 | 37227 ft | 588 kts | 94° |
| 2026-04-29 17:13 | 35.22627 | -101.69045 | 37224 ft | 582 kts | 111° |
| 2026-04-29 17:13 | 35.19435 | -101.60091 | 37175 ft | 572 kts | 124° |
| 2026-04-29 17:14 | 35.15818 | -101.51435 | 37162 ft | 572 kts | 123° |
| 2026-04-29 17:14 | 35.12207 | -101.42760 | 37124 ft | 573 kts | 123° |
| 2026-04-29 17:15 | 35.08587 | -101.34080 | 37128 ft | 573 kts | 123° |
| 2026-04-29 17:15 | 35.04959 | -101.25410 | 37140 ft | 573 kts | 123° |
| 2026-04-29 17:16 | 35.01338 | -101.16801 | 37139 ft | 573 kts | 123° |
| 2026-04-29 17:16 | 34.97692 | -101.08145 | 37103 ft | 573 kts | 123° |
| 2026-04-29 17:17 | 34.94043 | -100.99502 | 37134 ft | 573 kts | 123° |
| 2026-04-29 17:17 | 34.90375 | -100.90850 | 37141 ft | 573 kts | 123° |
| 2026-04-29 17:18 | 34.86721 | -100.82257 | 37146 ft | 573 kts | 123° |
| 2026-04-29 17:18 | 34.83060 | -100.73658 | 37149 ft | 573 kts | 123° |
| 2026-04-29 17:19 | 34.79396 | -100.65054 | 37159 ft | 573 kts | 123° |
| 2026-04-29 17:19 | 34.75729 | -100.56480 | 37153 ft | 571 kts | 123° |
| 2026-04-29 17:20 | 34.72041 | -100.47903 | 37160 ft | 571 kts | 123° |
| 2026-04-29 17:20 | 34.68369 | -100.39373 | 37161 ft | 571 kts | 123° |
| 2026-04-29 17:21 | 34.64663 | -100.30779 | 37163 ft | 571 kts | 123° |
| 2026-04-29 17:21 | 34.60987 | -100.22281 | 37164 ft | 571 kts | 124° |
| 2026-04-29 17:22 | 34.57302 | -100.13771 | 37163 ft | 571 kts | 124° |
| 2026-04-29 17:22 | 34.53616 | -100.05266 | 37142 ft | 569 kts | 124° |
| 2026-04-29 17:23 | 34.49929 | -99.96796 | 37155 ft | 568 kts | 124° |
| 2026-04-29 17:23 | 34.46237 | -99.88350 | 37155 ft | 567 kts | 124° |
| 2026-04-29 17:24 | 34.42522 | -99.79868 | 37147 ft | 567 kts | 124° |
| 2026-04-29 17:24 | 34.38845 | -99.71478 | 37145 ft | 566 kts | 124° |
| 2026-04-29 17:25 | 34.35142 | -99.63063 | 37103 ft | 566 kts | 123° |
| 2026-04-29 17:25 | 34.31434 | -99.54693 | 37123 ft | 564 kts | 124° |
| 2026-04-29 17:26 | 34.27550 | -99.46427 | 37125 ft | 563 kts | 126° |
| 2026-04-29 17:26 | 34.23591 | -99.38318 | 37123 ft | 562 kts | 127° |
| 2026-04-29 17:27 | 34.19632 | -99.30154 | 37133 ft | 563 kts | 126° |
| 2026-04-29 17:27 | 34.15734 | -99.21974 | 37132 ft | 563 kts | 126° |
| 2026-04-29 17:28 | 34.11819 | -99.13740 | 37111 ft | 564 kts | 125° |
| 2026-04-29 17:28 | 34.07907 | -99.05581 | 37104 ft | 565 kts | 125° |
| 2026-04-29 17:29 | 34.03967 | -98.97404 | 37096 ft | 565 kts | 125° |
| 2026-04-29 17:29 | 34.00667 | -98.90562 | 37089 ft | 566 kts | 125° |
| 2026-04-29 17:30 | 33.95795 | -98.81221 | 37102 ft | 555 kts | 139° |
| 2026-04-29 17:30 | 33.90529 | -98.74599 | 37125 ft | 550 kts | 142° |
| 2026-04-29 17:31 | 33.85169 | -98.67980 | 37142 ft | 553 kts | 141° |
| 2026-04-29 17:31 | 33.79785 | -98.61358 | 37150 ft | 553 kts | 141° |
| 2026-04-29 17:32 | 33.77090 | -98.58043 | 36809 ft | 557 kts | 141° |
| 2026-04-29 17:32 | 33.74582 | -98.54453 | 36170 ft | 561 kts | 134° |
| 2026-04-29 17:32 | 33.72180 | -98.50789 | 35676 ft | 555 kts | 134° |
| 2026-04-29 17:32 | 33.69810 | -98.47163 | 35197 ft | 550 kts | 135° |
| 2026-04-29 17:33 | 33.67461 | -98.43566 | 34721 ft | 545 kts | 135° |
| 2026-04-29 17:33 | 33.65118 | -98.39985 | 34209 ft | 548 kts | 135° |
| 2026-04-29 17:33 | 33.62742 | -98.36374 | 33701 ft | 551 kts | 135° |
| 2026-04-29 17:33 | 33.60370 | -98.32769 | 33193 ft | 548 kts | 135° |
| 2026-04-29 17:34 | 33.58023 | -98.29197 | 32679 ft | 543 kts | 135° |
| 2026-04-29 17:34 | 33.55701 | -98.25657 | 32179 ft | 537 kts | 135° |
| 2026-04-29 17:34 | 33.53407 | -98.22160 | 31687 ft | 531 kts | 135° |
| 2026-04-29 17:34 | 33.51127 | -98.18690 | 31202 ft | 533 kts | 136° |
| 2026-04-29 17:35 | 33.47993 | -98.13959 | 30565 ft | 542 kts | 136° |
| 2026-04-29 17:35 | 33.44088 | -98.08073 | 29727 ft | 541 kts | 136° |
| 2026-04-29 17:35 | 33.41763 | -98.04556 | 29146 ft | 537 kts | 135° |
| 2026-04-29 17:36 | 33.39472 | -98.01083 | 28637 ft | 534 kts | 135° |
| 2026-04-29 17:36 | 33.37176 | -97.97604 | 28117 ft | 529 kts | 135° |
| 2026-04-29 17:36 | 33.34904 | -97.94168 | 27617 ft | 523 kts | 135° |
| 2026-04-29 17:36 | 33.32615 | -97.90728 | 27122 ft | 535 kts | 135° |
| 2026-04-29 17:37 | 33.30276 | -97.87231 | 26633 ft | 537 kts | 135° |
| 2026-04-29 17:37 | 33.27933 | -97.83723 | 26153 ft | 540 kts | 135° |
| 2026-04-29 17:37 | 33.25597 | -97.80216 | 25675 ft | 538 kts | 134° |
| 2026-04-29 17:37 | 33.23282 | -97.76734 | 25145 ft | 534 kts | 134° |
| 2026-04-29 17:38 | 33.20981 | -97.73278 | 23992 ft | 537 kts | 134° |
| 2026-04-29 17:38 | 33.18676 | -97.69821 | 23352 ft | 524 kts | 134° |
| 2026-04-29 17:38 | 33.16425 | -97.66441 | 22449 ft | 515 kts | 133° |
| 2026-04-29 17:38 | 33.14196 | -97.63109 | 21575 ft | 509 kts | 133° |
| 2026-04-29 17:39 | 33.12029 | -97.59873 | 20761 ft | 502 kts | 133° |
| 2026-04-29 17:39 | 33.09863 | -97.56641 | 19944 ft | 496 kts | 133° |
| 2026-04-29 17:39 | 33.07718 | -97.53445 | 19141 ft | 490 kts | 133° |
| 2026-04-29 17:39 | 33.05594 | -97.50286 | 18374 ft | 484 kts | 132° |
| 2026-04-29 17:40 | 33.03500 | -97.47177 | 17508 ft | 478 kts | 132° |
| 2026-04-29 17:40 | 33.01433 | -97.44112 | 16710 ft | 471 kts | 133° |
| 2026-04-29 17:40 | 32.99395 | -97.41087 | 15965 ft | 465 kts | 133° |
| 2026-04-29 17:40 | 32.97381 | -97.38097 | 15265 ft | 460 kts | 133° |
| 2026-04-29 17:41 | 32.95392 | -97.35146 | 14583 ft | 454 kts | 133° |
| 2026-04-29 17:41 | 32.93427 | -97.32231 | 13958 ft | 448 kts | 133° |
| 2026-04-29 17:41 | 32.91513 | -97.29394 | 13286 ft | 443 kts | 133° |
| 2026-04-29 17:41 | 32.89565 | -97.26515 | 12586 ft | 439 kts | 133° |